createdAt,value
2023-12-22T00:00:06.324Z,6.51
2023-12-22T00:01:06.626Z,6.50
2023-12-22T00:01:46.893Z,6.36
2023-12-22T00:02:27.579Z,6.42
2023-12-22T00:03:07.773Z,6.34
2023-12-22T00:03:49.592Z,6.37
2023-12-22T00:04:29.708Z,6.47
2023-12-22T00:05:10.592Z,6.41
2023-12-22T00:05:50.824Z,6.37
2023-12-22T00:06:30.571Z,6.45
2023-12-22T00:07:10.647Z,6.46
2023-12-22T00:07:51.864Z,6.48
2023-12-22T00:08:32.701Z,6.49
2023-12-22T00:09:12.582Z,6.49
2023-12-22T00:09:52.732Z,6.51
2023-12-22T00:10:32.605Z,6.58
2023-12-22T00:11:12.655Z,6.48
2023-12-22T00:11:53.577Z,6.49
2023-12-22T00:12:33.709Z,6.41
2023-12-22T00:13:13.626Z,6.52
2023-12-22T00:13:53.786Z,6.54
2023-12-22T00:14:33.576Z,6.49
2023-12-22T00:15:13.657Z,6.57
2023-12-22T00:15:54.554Z,6.42
2023-12-22T00:16:34.749Z,6.41
2023-12-22T00:17:15.553Z,6.35
2023-12-22T00:17:55.707Z,6.28
2023-12-22T00:18:35.601Z,6.27
2023-12-22T00:19:15.773Z,6.43
2023-12-22T00:19:56.622Z,6.47
2023-12-22T00:20:36.657Z,6.33
2023-12-22T00:21:19.580Z,6.35
2023-12-22T00:21:59.686Z,6.32
2023-12-22T00:22:39.623Z,6.36
2023-12-22T00:23:19.663Z,6.34
2023-12-22T00:24:00.542Z,6.39
2023-12-22T00:24:41.510Z,6.41
2023-12-22T00:25:22.723Z,6.34
2023-12-22T00:26:02.682Z,6.46
2023-12-22T00:26:42.551Z,6.46
2023-12-22T00:27:22.737Z,6.46
2023-12-22T00:28:03.544Z,6.44
2023-12-22T00:28:44.100Z,6.46
2023-12-22T00:29:24.540Z,6.47
2023-12-22T00:30:04.652Z,6.44
2023-12-22T00:30:44.579Z,6.36
2023-12-22T00:31:24.705Z,6.51
2023-12-22T00:32:05.547Z,6.55
2023-12-22T00:32:45.759Z,6.54
2023-12-22T00:33:25.608Z,6.69
2023-12-22T00:34:05.698Z,6.67
2023-12-22T00:34:45.555Z,6.56
2023-12-22T00:35:25.644Z,6.57
2023-12-22T00:36:06.548Z,6.49
2023-12-22T00:36:46.634Z,6.63
2023-12-22T00:37:26.588Z,6.56
2023-12-22T00:38:06.771Z,6.49
2023-12-22T00:38:46.558Z,6.47
2023-12-22T00:39:26.748Z,6.45
2023-12-22T00:40:07.541Z,6.61
2023-12-22T00:40:41.381Z,6.55
2023-12-22T00:41:28.562Z,6.60
2023-12-22T00:42:02.547Z,6.57
2023-12-22T00:42:50.544Z,6.67
2023-12-22T00:43:24.387Z,6.59
2023-12-22T00:44:12.574Z,6.53
2023-12-22T00:44:46.310Z,6.53
2023-12-22T00:45:33.588Z,6.53
2023-12-22T00:46:07.613Z,6.63
2023-12-22T00:46:47.573Z,6.63
2023-12-22T00:47:21.841Z,6.62
2023-12-22T00:47:56.324Z,6.65
2023-12-22T00:48:36.578Z,6.60
2023-12-22T00:49:10.781Z,6.53
2023-12-22T00:49:45.335Z,6.46
2023-12-22T00:50:25.539Z,6.57
2023-12-22T00:50:59.632Z,6.60
2023-12-22T00:51:34.420Z,6.54
2023-12-22T00:52:14.692Z,6.65
2023-12-22T00:52:48.699Z,6.62
2023-12-22T00:53:22.304Z,6.62
2023-12-22T00:54:02.534Z,6.68
2023-12-22T00:54:36.681Z,6.64
2023-12-22T00:55:10.599Z,6.64
2023-12-22T00:55:51.568Z,6.74
2023-12-22T00:56:25.631Z,6.60
2023-12-22T00:56:59.627Z,6.48
2023-12-22T00:57:39.560Z,6.69
2023-12-22T00:58:13.635Z,6.63
2023-12-22T00:58:55.028Z,6.66
2023-12-22T00:59:39.520Z,6.68
2023-12-22T01:00:14.612Z,6.53
2023-12-22T01:00:51.321Z,6.67
2023-12-22T01:01:31.518Z,6.72
2023-12-22T01:02:05.635Z,6.68
2023-12-22T01:02:46.527Z,6.61
2023-12-22T01:03:27.635Z,6.65
2023-12-22T01:04:07.616Z,6.67
2023-12-22T01:04:47.750Z,6.61
2023-12-22T01:05:27.645Z,6.49
2023-12-22T01:06:07.724Z,6.53
2023-12-22T01:06:48.561Z,6.58
2023-12-22T01:07:29.632Z,6.47
2023-12-22T01:08:09.587Z,6.65
2023-12-22T01:08:51.104Z,6.58
2023-12-22T01:09:31.504Z,6.52
2023-12-22T01:10:12.721Z,6.59
2023-12-22T01:10:52.654Z,6.59
2023-12-22T01:11:33.596Z,6.54
2023-12-22T01:12:15.530Z,6.63
2023-12-22T01:12:55.600Z,6.58
2023-12-22T01:13:35.563Z,6.59
2023-12-22T01:14:15.656Z,6.68
2023-12-22T01:14:59.514Z,6.67
2023-12-22T01:15:40.622Z,6.69
2023-12-22T01:16:20.546Z,6.68
2023-12-22T01:17:01.448Z,6.70
2023-12-22T01:17:41.603Z,6.72
2023-12-22T01:18:21.667Z,6.70
2023-12-22T01:19:08.594Z,6.75
2023-12-22T01:19:42.698Z,6.71
2023-12-22T01:20:29.488Z,6.62
2023-12-22T01:21:03.701Z,6.77
2023-12-22T01:21:53.029Z,6.66
2023-12-22T01:22:27.605Z,6.67
2023-12-22T01:23:15.516Z,6.57
2023-12-22T01:23:49.586Z,6.58
2023-12-22T01:24:29.515Z,6.54
2023-12-22T01:25:09.584Z,6.62
2023-12-22T01:25:49.547Z,6.61
2023-12-22T01:26:29.671Z,6.59
2023-12-22T01:27:10.503Z,6.65
2023-12-22T01:27:53.347Z,6.61
2023-12-22T01:28:33.548Z,6.57
2023-12-22T01:29:13.653Z,6.62
2023-12-22T01:29:53.599Z,6.75
2023-12-22T01:30:33.643Z,6.77
2023-12-22T01:31:13.585Z,6.77
2023-12-22T01:31:54.646Z,6.83
2023-12-22T01:32:40.521Z,6.75
2023-12-22T01:33:20.663Z,6.82
2023-12-22T01:34:01.520Z,6.81
2023-12-22T01:34:41.719Z,6.90
2023-12-22T01:35:22.490Z,6.87
2023-12-22T01:36:03.971Z,6.78
2023-12-22T01:36:45.479Z,6.83
2023-12-22T01:37:25.733Z,6.80
2023-12-22T01:38:06.488Z,6.93
2023-12-22T01:38:46.620Z,6.95
2023-12-22T01:39:27.480Z,6.83
2023-12-22T01:40:07.692Z,6.96
2023-12-22T01:40:47.553Z,6.79
2023-12-22T01:41:27.619Z,6.91
2023-12-22T01:42:07.458Z,6.85
2023-12-22T01:42:48.619Z,6.87
2023-12-22T01:43:29.555Z,6.86
2023-12-22T01:44:09.567Z,6.82
2023-12-22T01:44:49.478Z,6.79
2023-12-22T01:45:29.569Z,6.75
2023-12-22T01:46:10.479Z,6.72
2023-12-22T01:46:50.717Z,6.60
2023-12-22T01:47:31.491Z,6.56
2023-12-22T01:48:12.728Z,6.66
2023-12-22T01:48:53.497Z,6.40
2023-12-22T01:49:33.730Z,6.29
2023-12-22T01:50:18.531Z,6.20
2023-12-22T01:50:59.832Z,6.13
2023-12-22T01:51:41.599Z,6.16
2023-12-22T01:52:23.373Z,6.03
2023-12-22T01:53:04.530Z,5.76
2023-12-22T01:53:44.549Z,5.62
2023-12-22T01:54:25.452Z,5.55
2023-12-22T01:55:05.576Z,5.60
2023-12-22T01:55:46.503Z,5.63
2023-12-22T01:56:26.566Z,5.50
2023-12-22T01:57:07.497Z,5.60
2023-12-22T01:57:48.840Z,5.65
2023-12-22T01:58:32.470Z,5.57
2023-12-22T01:59:12.565Z,5.59
2023-12-22T01:59:54.466Z,5.50
2023-12-22T02:00:34.870Z,5.67
2023-12-22T02:01:15.609Z,5.59
2023-12-22T02:01:55.613Z,5.64
2023-12-22T02:02:36.473Z,5.57
2023-12-22T02:03:17.569Z,5.63
2023-12-22T02:04:00.645Z,5.68
2023-12-22T02:04:40.559Z,5.65
2023-12-22T02:05:21.516Z,5.63
2023-12-22T02:06:01.625Z,5.77
2023-12-22T02:06:43.437Z,5.78
2023-12-22T02:07:23.538Z,5.87
2023-12-22T02:08:04.486Z,5.66
2023-12-22T02:08:44.551Z,5.62
2023-12-22T02:09:24.439Z,5.66
2023-12-22T02:10:04.845Z,5.80
2023-12-22T02:10:45.488Z,5.85
2023-12-22T02:11:25.547Z,5.92
2023-12-22T02:12:06.445Z,5.93
2023-12-22T02:12:47.242Z,5.97
2023-12-22T02:13:27.471Z,5.93
2023-12-22T02:14:07.564Z,5.99
2023-12-22T02:14:47.425Z,6.01
2023-12-22T02:15:27.550Z,5.97
2023-12-22T02:16:34.502Z,6.06
2023-12-22T02:17:31.573Z,6.13
2023-12-22T02:18:24.487Z,6.03
2023-12-22T02:19:08.492Z,5.99
2023-12-22T02:19:51.625Z,6.05
2023-12-22T02:20:39.426Z,5.98
2023-12-22T02:21:13.524Z,6.02
2023-12-22T02:22:14.488Z,5.99
2023-12-22T02:22:48.644Z,5.99
2023-12-22T02:23:35.439Z,6.11
2023-12-22T02:24:16.457Z,6.08
2023-12-22T02:25:10.467Z,6.12
2023-12-22T02:26:11.464Z,6.09
2023-12-22T02:27:05.431Z,6.07
2023-12-22T02:28:13.467Z,6.01
2023-12-22T02:29:10.441Z,5.99
2023-12-22T02:29:57.510Z,6.07
2023-12-22T02:30:45.521Z,6.24
2023-12-22T02:31:44.464Z,6.12
2023-12-22T02:32:32.644Z,6.06
2023-12-22T02:33:15.451Z,6.03
2023-12-22T02:33:56.304Z,6.02
2023-12-22T02:34:38.568Z,6.06
2023-12-22T02:35:30.529Z,6.10
2023-12-22T02:36:11.543Z,6.15
2023-12-22T02:36:59.425Z,6.08
2023-12-22T02:37:34.613Z,5.99
2023-12-22T02:38:22.418Z,6.06
2023-12-22T02:38:57.496Z,6.09
2023-12-22T02:39:44.410Z,6.14
2023-12-22T02:40:19.539Z,6.14
2023-12-22T02:41:00.602Z,6.03
2023-12-22T02:41:40.518Z,6.10
2023-12-22T02:42:21.443Z,6.11
2023-12-22T02:43:01.647Z,6.14
2023-12-22T02:43:41.434Z,6.06
2023-12-22T02:44:21.496Z,6.16
2023-12-22T02:45:02.422Z,6.12
2023-12-22T02:45:56.435Z,5.98
2023-12-22T02:46:36.421Z,6.10
2023-12-22T02:47:16.502Z,6.12
2023-12-22T02:47:56.516Z,6.14
2023-12-22T02:48:37.556Z,6.11
2023-12-22T02:49:18.460Z,6.04
2023-12-22T02:49:58.770Z,6.06
2023-12-22T02:50:38.415Z,6.06
2023-12-22T02:51:18.489Z,6.17
2023-12-22T02:51:58.422Z,6.08
2023-12-22T02:52:38.586Z,6.15
2023-12-22T02:53:18.412Z,6.15
2023-12-22T02:53:58.594Z,6.16
2023-12-22T02:54:40.430Z,6.17
2023-12-22T02:55:20.575Z,6.05
2023-12-22T02:56:01.467Z,6.17
2023-12-22T02:56:43.813Z,6.16
2023-12-22T02:57:23.427Z,6.27
2023-12-22T02:58:03.522Z,6.06
2023-12-22T02:58:43.522Z,6.02
2023-12-22T02:59:23.635Z,6.17
2023-12-22T03:00:04.420Z,6.28
2023-12-22T03:00:44.551Z,6.26
2023-12-22T03:01:24.471Z,6.21
2023-12-22T03:02:04.573Z,6.20
2023-12-22T03:02:44.436Z,6.32
2023-12-22T03:03:24.501Z,6.29
2023-12-22T03:04:05.449Z,6.28
2023-12-22T03:04:47.511Z,6.36
2023-12-22T03:05:27.436Z,6.17
2023-12-22T03:06:07.569Z,6.25
2023-12-22T03:06:47.395Z,6.24
2023-12-22T03:07:27.505Z,6.33
2023-12-22T03:08:08.480Z,6.37
2023-12-22T03:08:48.506Z,6.29
2023-12-22T03:09:29.393Z,6.30
2023-12-22T03:10:09.513Z,6.22
2023-12-22T03:10:49.453Z,6.18
2023-12-22T03:11:29.477Z,6.29
2023-12-22T03:12:10.363Z,6.36
2023-12-22T03:12:50.517Z,6.23
2023-12-22T03:13:30.502Z,6.19
2023-12-22T03:14:11.121Z,6.22
2023-12-22T03:14:51.401Z,6.23
2023-12-22T03:15:31.484Z,6.18
2023-12-22T03:16:16.395Z,6.26
2023-12-22T03:16:56.533Z,6.26
2023-12-22T03:17:36.399Z,6.16
2023-12-22T03:18:16.776Z,6.12
2023-12-22T03:18:57.413Z,6.15
2023-12-22T03:19:38.539Z,6.20
2023-12-22T03:20:19.400Z,6.17
2023-12-22T03:20:59.495Z,6.23
2023-12-22T03:21:39.399Z,6.19
2023-12-22T03:22:19.556Z,6.31
2023-12-22T03:22:59.450Z,6.29
2023-12-22T03:23:39.448Z,6.21
2023-12-22T03:24:20.382Z,6.20
2023-12-22T03:25:00.470Z,6.31
2023-12-22T03:25:40.379Z,6.22
2023-12-22T03:26:20.475Z,6.20
2023-12-22T03:27:01.407Z,6.24
2023-12-22T03:27:41.470Z,6.24
2023-12-22T03:28:22.388Z,6.18
2023-12-22T03:29:02.475Z,6.28
2023-12-22T03:29:42.392Z,6.19
2023-12-22T03:30:22.552Z,6.28
2023-12-22T03:31:02.383Z,6.18
2023-12-22T03:31:42.509Z,6.29
2023-12-22T03:32:23.389Z,6.21
2023-12-22T03:33:03.624Z,6.26
2023-12-22T03:33:43.391Z,6.23
2023-12-22T03:34:23.505Z,6.17
2023-12-22T03:35:03.498Z,6.21
2023-12-22T03:35:43.470Z,6.26
2023-12-22T03:36:24.369Z,6.30
2023-12-22T03:37:04.467Z,6.26
2023-12-22T03:37:44.436Z,6.13
2023-12-22T03:38:24.431Z,6.16
2023-12-22T03:39:04.334Z,6.12
2023-12-22T03:39:44.479Z,6.01
2023-12-22T03:40:25.396Z,6.06
2023-12-22T03:41:19.362Z,6.02
2023-12-22T03:42:13.387Z,6.06
2023-12-22T03:43:07.345Z,6.17
2023-12-22T03:44:13.335Z,6.17
2023-12-22T03:45:07.356Z,6.15
2023-12-22T03:45:47.364Z,6.17
2023-12-22T03:46:27.539Z,6.16
2023-12-22T03:47:07.359Z,6.12
2023-12-22T03:47:47.796Z,6.22
2023-12-22T03:48:29.413Z,6.25
2023-12-22T03:49:09.543Z,6.22
2023-12-22T03:49:49.358Z,6.07
2023-12-22T03:50:29.498Z,6.16
2023-12-22T03:51:09.397Z,6.09
2023-12-22T03:51:49.435Z,6.08
2023-12-22T03:52:30.340Z,6.07
2023-12-22T03:53:10.443Z,6.15
2023-12-22T03:53:50.366Z,6.13
2023-12-22T03:54:30.529Z,6.10
2023-12-22T03:55:11.343Z,6.03
2023-12-22T03:55:51.561Z,6.16
2023-12-22T03:56:32.364Z,6.04
2023-12-22T03:57:26.335Z,6.03
2023-12-22T03:58:20.351Z,6.01
2023-12-22T03:59:14.364Z,6.13
2023-12-22T04:00:08.347Z,6.02
2023-12-22T04:01:02.398Z,6.05
2023-12-22T04:01:49.374Z,5.97
2023-12-22T04:02:23.492Z,5.94
2023-12-22T04:03:11.357Z,5.99
2023-12-22T04:03:45.438Z,6.01
2023-12-22T04:04:35.341Z,6.05
2023-12-22T04:05:09.604Z,5.91
2023-12-22T04:05:56.488Z,5.94
2023-12-22T04:06:37.619Z,5.83
2023-12-22T04:07:17.436Z,5.89
2023-12-22T04:07:57.494Z,5.89
2023-12-22T04:08:38.446Z,6.02
2023-12-22T04:09:18.494Z,5.93
2023-12-22T04:09:58.318Z,5.98
2023-12-22T04:10:38.474Z,5.88
2023-12-22T04:11:18.313Z,5.96
2023-12-22T04:11:58.438Z,6.00
2023-12-22T04:12:39.338Z,5.96
2023-12-22T04:13:19.449Z,5.86
2023-12-22T04:13:59.417Z,5.89
2023-12-22T04:14:39.448Z,5.89
2023-12-22T04:15:20.333Z,5.97
2023-12-22T04:16:00.582Z,5.96
2023-12-22T04:16:45.364Z,5.97
2023-12-22T04:17:25.412Z,5.93
2023-12-22T04:18:05.409Z,5.81
2023-12-22T04:18:45.645Z,5.85
2023-12-22T04:19:25.476Z,5.84
2023-12-22T04:20:05.461Z,5.87
2023-12-22T04:20:46.340Z,5.89
2023-12-22T04:21:26.407Z,5.94
2023-12-22T04:22:06.309Z,5.93
2023-12-22T04:22:47.422Z,5.89
2023-12-22T04:23:27.318Z,5.93
2023-12-22T04:24:08.511Z,5.87
2023-12-22T04:24:48.293Z,5.90
2023-12-22T04:25:28.453Z,5.98
2023-12-22T04:26:10.313Z,5.83
2023-12-22T04:26:50.404Z,5.79
2023-12-22T04:27:30.304Z,5.82
2023-12-22T04:28:11.489Z,5.76
2023-12-22T04:28:51.416Z,5.82
2023-12-22T04:29:31.475Z,5.67
2023-12-22T04:30:12.309Z,5.70
2023-12-22T04:30:52.508Z,5.73
2023-12-22T04:31:32.362Z,5.83
2023-12-22T04:32:13.404Z,5.80
2023-12-22T04:32:53.382Z,5.74
2023-12-22T04:33:33.525Z,5.77
2023-12-22T04:34:13.350Z,5.75
2023-12-22T04:34:53.441Z,5.69
2023-12-22T04:35:33.291Z,5.72
2023-12-22T04:36:14.399Z,5.63
2023-12-22T04:36:54.302Z,5.71
2023-12-22T04:37:34.419Z,5.67
2023-12-22T04:38:15.314Z,5.79
2023-12-22T04:38:55.429Z,5.63
2023-12-22T04:39:35.391Z,5.72
2023-12-22T04:40:16.455Z,5.68
2023-12-22T04:40:56.324Z,5.70
2023-12-22T04:41:36.405Z,5.63
2023-12-22T04:42:16.309Z,5.62
2023-12-22T04:42:57.459Z,5.67
2023-12-22T04:43:37.346Z,5.67
2023-12-22T04:44:17.389Z,5.63
2023-12-22T04:44:59.303Z,5.64
2023-12-22T04:45:39.400Z,5.41
2023-12-22T04:46:19.329Z,5.55
2023-12-22T04:46:59.460Z,5.58
2023-12-22T04:47:39.350Z,5.67
2023-12-22T04:48:19.487Z,5.56
2023-12-22T04:49:00.439Z,5.55
2023-12-22T04:49:40.413Z,5.67
2023-12-22T04:50:20.312Z,5.51
2023-12-22T04:51:00.378Z,5.55
2023-12-22T04:51:40.308Z,5.54
2023-12-22T04:52:20.419Z,5.49
2023-12-22T04:53:01.362Z,5.46
2023-12-22T04:53:41.463Z,5.48
2023-12-22T04:54:21.284Z,5.54
2023-12-22T04:55:01.386Z,5.51
2023-12-22T04:55:41.353Z,5.53
2023-12-22T04:56:21.742Z,5.51
2023-12-22T04:57:02.275Z,5.52
2023-12-22T04:57:42.404Z,5.54
2023-12-22T04:58:22.287Z,5.52
2023-12-22T04:59:02.447Z,5.49
2023-12-22T04:59:42.266Z,5.50
2023-12-22T05:00:23.403Z,5.58
2023-12-22T05:01:04.404Z,5.49
2023-12-22T05:01:46.661Z,5.47
2023-12-22T05:02:59.312Z,5.32
2023-12-22T05:03:39.433Z,5.38
2023-12-22T05:04:19.358Z,5.45
2023-12-22T05:05:00.495Z,5.43
2023-12-22T05:05:41.343Z,5.38
2023-12-22T05:06:28.310Z,5.35
2023-12-22T05:07:02.379Z,5.33
2023-12-22T05:07:49.491Z,5.31
2023-12-22T05:08:24.026Z,5.28
2023-12-22T05:09:12.268Z,5.32
2023-12-22T05:09:45.995Z,5.36
2023-12-22T05:10:33.348Z,5.39
2023-12-22T05:11:07.131Z,5.28
2023-12-22T05:11:48.289Z,5.31
2023-12-22T05:12:22.414Z,5.26
2023-12-22T05:12:57.196Z,5.28
2023-12-22T05:13:37.288Z,5.23
2023-12-22T05:14:11.964Z,5.21
2023-12-22T05:14:46.007Z,5.32
2023-12-22T05:15:26.269Z,5.42
2023-12-22T05:16:00.361Z,5.41
2023-12-22T05:16:35.458Z,5.39
2023-12-22T05:17:16.289Z,5.42
2023-12-22T05:17:50.668Z,5.40
2023-12-22T05:18:27.149Z,5.36
2023-12-22T05:19:08.263Z,5.24
2023-12-22T05:19:42.372Z,5.36
2023-12-22T05:20:17.042Z,5.31
2023-12-22T05:20:58.254Z,5.36
2023-12-22T05:21:32.449Z,5.37
2023-12-22T05:22:06.020Z,5.39
2023-12-22T05:22:47.315Z,5.30
2023-12-22T05:23:21.334Z,5.46
2023-12-22T05:23:56.038Z,5.34
2023-12-22T05:24:36.250Z,5.29
2023-12-22T05:25:11.532Z,5.42
2023-12-22T05:25:45.143Z,5.31
2023-12-22T05:26:27.241Z,5.29
2023-12-22T05:27:01.345Z,5.25
2023-12-22T05:27:36.025Z,5.31
2023-12-22T05:28:16.253Z,5.31
2023-12-22T05:28:52.943Z,5.27
2023-12-22T05:29:27.022Z,5.41
2023-12-22T05:30:09.249Z,5.31
2023-12-22T05:30:43.403Z,5.33
2023-12-22T05:31:18.742Z,5.39
2023-12-22T05:31:59.304Z,5.44
2023-12-22T05:32:33.355Z,5.45
2023-12-22T05:33:07.105Z,5.33
2023-12-22T05:33:47.266Z,5.38
2023-12-22T05:34:21.373Z,5.36
2023-12-22T05:34:56.117Z,5.31
2023-12-22T05:35:39.676Z,5.35
2023-12-22T05:36:15.340Z,5.44
2023-12-22T05:36:49.012Z,5.33
2023-12-22T05:37:29.269Z,5.42
2023-12-22T05:38:03.507Z,5.36
2023-12-22T05:38:41.171Z,5.39
2023-12-22T05:39:22.253Z,5.31
2023-12-22T05:39:56.927Z,5.35
2023-12-22T05:40:32.857Z,5.31
2023-12-22T05:41:14.239Z,5.42
2023-12-22T05:41:48.418Z,5.32
2023-12-22T05:42:23.065Z,5.31
2023-12-22T05:43:03.230Z,5.39
2023-12-22T05:43:37.375Z,5.31
2023-12-22T05:44:11.029Z,5.30
2023-12-22T05:44:54.307Z,5.24
2023-12-22T05:45:28.360Z,5.42
2023-12-22T05:46:03.113Z,5.41
2023-12-22T05:46:48.386Z,5.32
2023-12-22T05:47:22.392Z,5.32
2023-12-22T05:47:56.157Z,5.24
2023-12-22T05:48:36.309Z,5.32
2023-12-22T05:49:10.552Z,5.24
2023-12-22T05:49:45.506Z,5.13
2023-12-22T05:50:26.310Z,5.27
2023-12-22T05:51:00.410Z,5.21
2023-12-22T05:51:40.917Z,5.27
2023-12-22T05:52:22.255Z,5.28
2023-12-22T05:52:56.470Z,5.30
2023-12-22T05:53:31.223Z,5.21
2023-12-22T05:54:13.218Z,5.28
2023-12-22T05:54:47.307Z,5.30
2023-12-22T05:55:21.094Z,5.30
2023-12-22T05:56:01.370Z,5.25
2023-12-22T05:56:35.384Z,5.38
2023-12-22T05:57:10.071Z,5.28
2023-12-22T05:57:50.464Z,5.27
2023-12-22T05:58:24.328Z,5.24
2023-12-22T05:58:58.113Z,5.34
2023-12-22T05:59:40.240Z,5.28
2023-12-22T06:00:21.330Z,5.30
2023-12-22T06:01:02.298Z,5.26
2023-12-22T06:01:42.475Z,5.18
2023-12-22T06:02:22.230Z,5.30
2023-12-22T06:03:02.349Z,5.28
2023-12-22T06:03:43.245Z,5.14
2023-12-22T06:04:24.377Z,5.34
2023-12-22T06:05:04.354Z,5.41
2023-12-22T06:05:44.399Z,5.30
2023-12-22T06:06:24.275Z,5.42
2023-12-22T06:07:04.384Z,5.48
2023-12-22T06:07:44.232Z,5.52
2023-12-22T06:08:25.286Z,5.42
2023-12-22T06:09:06.194Z,5.37
2023-12-22T06:09:46.378Z,5.42
2023-12-22T06:10:27.248Z,5.44
2023-12-22T06:11:07.306Z,5.45
2023-12-22T06:11:47.228Z,5.53
2023-12-22T06:12:28.294Z,5.46
2023-12-22T06:13:11.202Z,5.49
2023-12-22T06:13:51.394Z,5.48
2023-12-22T06:14:31.221Z,5.45
2023-12-22T06:15:12.281Z,5.45
2023-12-22T06:15:52.203Z,5.41
2023-12-22T06:16:33.373Z,5.46
2023-12-22T06:17:13.254Z,5.52
2023-12-22T06:17:53.787Z,5.62
2023-12-22T06:18:34.254Z,5.58
2023-12-22T06:19:14.589Z,5.25
2023-12-22T06:19:55.279Z,5.32
2023-12-22T06:20:36.292Z,5.32
2023-12-22T06:21:18.237Z,5.29
2023-12-22T06:21:58.477Z,5.39
2023-12-22T06:22:38.246Z,5.52
2023-12-22T06:23:18.380Z,5.60
2023-12-22T06:23:58.229Z,5.54
2023-12-22T06:24:39.333Z,5.39
2023-12-22T06:25:20.223Z,5.37
2023-12-22T06:26:00.515Z,5.40
2023-12-22T06:26:41.201Z,5.28
2023-12-22T06:27:21.291Z,5.29
2023-12-22T06:28:02.225Z,5.27
2023-12-22T06:28:42.543Z,5.31
2023-12-22T06:29:23.217Z,5.40
2023-12-22T06:30:03.303Z,5.41
2023-12-22T06:30:43.211Z,5.33
2023-12-22T06:31:28.301Z,5.33
2023-12-22T06:32:08.191Z,5.33
2023-12-22T06:32:49.555Z,5.29
2023-12-22T06:33:30.336Z,5.24
2023-12-22T06:34:10.286Z,5.28
2023-12-22T06:34:50.181Z,5.29
2023-12-22T06:35:30.356Z,5.26
2023-12-22T06:36:11.208Z,5.47
2023-12-22T06:36:52.306Z,5.46
2023-12-22T06:37:33.218Z,5.46
2023-12-22T06:38:13.305Z,5.25
2023-12-22T06:38:55.202Z,5.33
2023-12-22T06:39:35.281Z,5.38
2023-12-22T06:40:16.194Z,5.44
2023-12-22T06:40:57.342Z,5.32
2023-12-22T06:41:44.176Z,5.41
2023-12-22T06:42:18.375Z,5.35
2023-12-22T06:43:05.183Z,5.38
2023-12-22T06:43:39.266Z,5.31
2023-12-22T06:44:20.204Z,5.30
2023-12-22T06:45:01.277Z,5.24
2023-12-22T06:45:41.177Z,5.26
2023-12-22T06:46:32.653Z,5.30
2023-12-22T06:47:14.262Z,5.27
2023-12-22T06:47:54.694Z,5.29
2023-12-22T06:48:37.284Z,5.30
2023-12-22T06:49:17.783Z,5.29
2023-12-22T06:49:59.365Z,5.27
2023-12-22T06:50:40.849Z,5.21
2023-12-22T06:51:32.161Z,5.23
2023-12-22T06:52:13.275Z,5.31
2023-12-22T06:52:54.154Z,5.23
2023-12-22T06:53:34.261Z,5.16
2023-12-22T06:54:17.242Z,5.19
2023-12-22T06:54:58.408Z,5.19
2023-12-22T06:55:38.178Z,5.28
2023-12-22T06:56:40.986Z,5.19
2023-12-22T06:57:23.074Z,5.21
2023-12-22T06:58:05.658Z,5.23
2023-12-22T06:58:46.169Z,5.28
2023-12-22T06:59:27.250Z,5.23
2023-12-22T07:00:08.147Z,5.32
2023-12-22T07:00:56.166Z,5.29
2023-12-22T07:01:58.886Z,5.20
2023-12-22T07:03:09.259Z,5.33
2023-12-22T07:03:56.280Z,5.30
2023-12-22T07:05:22.203Z,5.26
2023-12-22T07:06:10.312Z,5.19
2023-12-22T07:06:44.279Z,5.18
2023-12-22T07:07:31.163Z,5.23
2023-12-22T07:08:05.765Z,5.29
2023-12-22T07:09:05.152Z,5.18
2023-12-22T07:09:40.824Z,5.21
2023-12-22T07:10:29.232Z,5.16
2023-12-22T07:11:04.145Z,5.32
2023-12-22T07:12:04.406Z,5.32
2023-12-22T07:12:38.263Z,5.27
2023-12-22T07:13:11.967Z,5.23
2023-12-22T07:13:53.161Z,5.25
2023-12-22T07:14:27.328Z,5.19
2023-12-22T07:15:01.105Z,5.26
2023-12-22T07:15:41.176Z,5.16
2023-12-22T07:16:19.285Z,5.26
2023-12-22T07:16:53.071Z,5.24
2023-12-22T07:17:33.321Z,5.26
2023-12-22T07:18:07.342Z,5.24
2023-12-22T07:18:41.052Z,5.27
2023-12-22T07:19:22.207Z,5.27
2023-12-22T07:19:59.185Z,5.25
2023-12-22T07:20:33.937Z,5.27
2023-12-22T07:21:15.172Z,5.24
2023-12-22T07:21:50.748Z,5.18
2023-12-22T07:22:25.089Z,5.29
2023-12-22T07:23:05.223Z,5.29
2023-12-22T07:23:39.224Z,5.30
2023-12-22T07:24:14.598Z,5.27
2023-12-22T07:24:58.286Z,5.34
2023-12-22T07:25:33.262Z,5.42
2023-12-22T07:26:07.126Z,5.45
2023-12-22T07:26:47.115Z,5.35
2023-12-22T07:27:21.189Z,5.35
2023-12-22T07:27:55.743Z,5.39
2023-12-22T07:28:36.249Z,5.34
2023-12-22T07:29:10.820Z,5.50
2023-12-22T07:29:45.036Z,5.46
2023-12-22T07:30:25.130Z,5.49
2023-12-22T07:31:01.704Z,5.41
2023-12-22T07:31:36.032Z,5.35
2023-12-22T07:32:16.294Z,5.38
2023-12-22T07:32:54.134Z,5.41
2023-12-22T07:33:29.737Z,5.54
2023-12-22T07:34:11.192Z,5.51
2023-12-22T07:34:46.043Z,5.39
2023-12-22T07:35:20.041Z,5.47
2023-12-22T07:36:00.284Z,5.52
2023-12-22T07:36:34.720Z,5.55
2023-12-22T07:37:10.572Z,5.60
2023-12-22T07:37:51.292Z,5.52
2023-12-22T07:38:25.356Z,5.56
2023-12-22T07:39:00.650Z,5.54
2023-12-22T07:39:42.155Z,5.65
2023-12-22T07:40:18.077Z,5.62
2023-12-22T07:40:52.934Z,5.56
2023-12-22T07:41:33.141Z,5.61
2023-12-22T07:42:07.973Z,5.59
2023-12-22T07:42:41.896Z,5.50
2023-12-22T07:43:23.140Z,5.54
2023-12-22T07:43:57.239Z,5.51
2023-12-22T07:44:33.803Z,5.43
2023-12-22T07:45:15.147Z,5.55
2023-12-22T07:45:51.547Z,5.52
2023-12-22T07:46:26.498Z,5.48
2023-12-22T07:47:08.214Z,5.44
2023-12-22T07:47:42.338Z,5.55
2023-12-22T07:48:17.069Z,5.44
2023-12-22T07:48:58.217Z,5.40
2023-12-22T07:49:33.146Z,5.49
2023-12-22T07:50:09.923Z,5.47
2023-12-22T07:50:51.818Z,5.51
2023-12-22T07:51:26.313Z,5.56
2023-12-22T07:52:02.198Z,5.46
2023-12-22T07:52:46.135Z,5.51
2023-12-22T07:53:20.319Z,5.52
2023-12-22T07:53:53.883Z,5.57
2023-12-22T07:54:34.106Z,5.56
2023-12-22T07:55:08.240Z,5.37
2023-12-22T07:55:43.958Z,5.41
2023-12-22T07:56:24.107Z,5.33
2023-12-22T07:56:58.244Z,5.41
2023-12-22T07:57:31.854Z,5.47
2023-12-22T07:58:13.084Z,5.66
2023-12-22T07:58:47.699Z,5.58
2023-12-22T07:59:29.807Z,5.49
2023-12-22T08:00:13.133Z,5.57
2023-12-22T08:00:48.475Z,5.53
2023-12-22T08:01:22.939Z,5.50
2023-12-22T08:02:03.226Z,5.51
2023-12-22T08:02:37.415Z,5.57
2023-12-22T08:03:11.819Z,5.53
2023-12-22T08:03:52.199Z,5.48
2023-12-22T08:04:26.288Z,5.50
2023-12-22T08:05:01.028Z,5.35
2023-12-22T08:05:41.176Z,5.36
2023-12-22T08:06:15.653Z,5.43
2023-12-22T08:06:49.980Z,5.42
2023-12-22T08:07:30.119Z,5.33
2023-12-22T08:08:04.222Z,5.48
2023-12-22T08:08:37.849Z,5.38
2023-12-22T08:09:19.084Z,5.32
2023-12-22T08:09:53.165Z,5.35
2023-12-22T08:10:28.771Z,5.30
2023-12-22T08:11:10.061Z,5.45
2023-12-22T08:11:47.614Z,5.55
2023-12-22T08:12:21.813Z,5.53
2023-12-22T08:13:02.117Z,5.47
2023-12-22T08:13:36.648Z,5.45
2023-12-22T08:14:10.837Z,5.45
2023-12-22T08:14:51.082Z,5.45
2023-12-22T08:15:33.041Z,5.65
2023-12-22T08:16:11.273Z,5.63
2023-12-22T08:16:52.114Z,5.47
2023-12-22T08:17:26.168Z,5.33
2023-12-22T08:18:01.001Z,5.37
2023-12-22T08:18:41.209Z,5.33
2023-12-22T08:19:15.615Z,5.15
2023-12-22T08:19:51.907Z,5.21
2023-12-22T08:20:36.632Z,5.32
2023-12-22T08:21:21.136Z,5.27
2023-12-22T08:22:02.402Z,5.09
2023-12-22T08:22:46.030Z,5.10
2023-12-22T08:23:22.987Z,4.99
2023-12-22T08:24:03.218Z,5.13
2023-12-22T08:24:43.320Z,5.07
2023-12-22T08:25:25.297Z,4.98
2023-12-22T08:26:06.240Z,4.90
2023-12-22T08:26:46.114Z,5.09
2023-12-22T08:27:26.190Z,5.13
2023-12-22T08:28:06.105Z,5.00
2023-12-22T08:28:46.237Z,4.83
2023-12-22T08:29:29.133Z,4.89
2023-12-22T08:30:10.243Z,4.92
2023-12-22T08:30:50.075Z,4.79
2023-12-22T08:31:30.203Z,5.02
2023-12-22T08:32:11.097Z,4.91
2023-12-22T08:32:51.235Z,4.89
2023-12-22T08:33:31.130Z,4.96
2023-12-22T08:34:12.232Z,4.93
2023-12-22T08:34:53.161Z,4.94
2023-12-22T08:35:33.183Z,4.90
2023-12-22T08:36:14.394Z,4.89
2023-12-22T08:36:54.450Z,4.93
2023-12-22T08:37:35.213Z,4.81
2023-12-22T08:38:16.672Z,4.77
2023-12-22T08:38:57.574Z,4.85
2023-12-22T08:39:38.250Z,4.86
2023-12-22T08:40:19.099Z,4.78
2023-12-22T08:41:04.483Z,4.87
2023-12-22T08:41:46.095Z,4.96
2023-12-22T08:42:27.159Z,4.85
2023-12-22T08:43:07.058Z,4.78
2023-12-22T08:43:47.292Z,4.82
2023-12-22T08:44:28.114Z,4.77
2023-12-22T08:45:08.149Z,4.84
2023-12-22T08:45:48.105Z,4.80
2023-12-22T08:46:29.191Z,4.81
2023-12-22T08:47:09.128Z,4.92
2023-12-22T08:47:49.605Z,4.84
2023-12-22T08:48:30.241Z,4.68
2023-12-22T08:49:11.220Z,4.63
2023-12-22T08:49:51.095Z,4.64
2023-12-22T08:50:32.132Z,4.74
2023-12-22T08:51:12.131Z,4.65
2023-12-22T08:51:52.121Z,4.71
2023-12-22T08:52:32.147Z,4.81
2023-12-22T08:53:13.186Z,4.79
2023-12-22T08:53:53.070Z,4.90
2023-12-22T08:54:35.206Z,4.87
2023-12-22T08:55:15.049Z,4.81
2023-12-22T08:55:55.162Z,4.62
2023-12-22T08:56:35.109Z,4.81
2023-12-22T08:57:15.132Z,4.79